sensor_id;sensor_type;location;lat;lon;timestamp;P1;durP1;ratioP1;P2;durP2;ratioP2
52047;SDS011;46904;49.438;8.752;2022-11-21T00:02:06;2.28;;;1.30;;
52047;SDS011;46904;49.438;8.752;2022-11-21T00:04:32;1.75;;;1.02;;
52047;SDS011;46904;49.438;8.752;2022-11-21T00:06:57;2.25;;;1.02;;
52047;SDS011;46904;49.438;8.752;2022-11-21T00:09:23;1.50;;;1.20;;
52047;SDS011;46904;49.438;8.752;2022-11-21T00:11:49;1.65;;;1.10;;
52047;SDS011;46904;49.438;8.752;2022-11-21T00:14:15;1.52;;;0.98;;
52047;SDS011;46904;49.438;8.752;2022-11-21T00:16:41;4.15;;;1.38;;
52047;SDS011;46904;49.438;8.752;2022-11-21T00:19:06;1.50;;;1.00;;
52047;SDS011;46904;49.438;8.752;2022-11-21T00:21:32;2.20;;;1.20;;
52047;SDS011;46904;49.438;8.752;2022-11-21T00:23:57;1.40;;;1.10;;
52047;SDS011;46904;49.438;8.752;2022-11-21T00:26:23;2.47;;;1.00;;
52047;SDS011;46904;49.438;8.752;2022-11-21T00:28:48;1.75;;;1.30;;
52047;SDS011;46904;49.438;8.752;2022-11-21T00:31:18;2.65;;;1.10;;
52047;SDS011;46904;49.438;8.752;2022-11-21T00:33:44;2.60;;;1.23;;
52047;SDS011;46904;49.438;8.752;2022-11-21T00:36:09;2.33;;;1.25;;
52047;SDS011;46904;49.438;8.752;2022-11-21T00:38:35;2.47;;;1.02;;
52047;SDS011;46904;49.438;8.752;2022-11-21T00:41:01;1.70;;;1.00;;
52047;SDS011;46904;49.438;8.752;2022-11-21T00:43:27;3.40;;;1.42;;
52047;SDS011;46904;49.438;8.752;2022-11-21T00:45:52;2.85;;;1.20;;
52047;SDS011;46904;49.438;8.752;2022-11-21T00:48:18;2.20;;;1.13;;
52047;SDS011;46904;49.438;8.752;2022-11-21T00:50:46;1.05;;;0.95;;
52047;SDS011;46904;49.438;8.752;2022-11-21T00:53:12;2.17;;;1.15;;
52047;SDS011;46904;49.438;8.752;2022-11-21T00:55:37;1.77;;;1.30;;
52047;SDS011;46904;49.438;8.752;2022-11-21T00:58:03;2.22;;;1.23;;
52047;SDS011;46904;49.438;8.752;2022-11-21T01:00:28;2.15;;;1.00;;
52047;SDS011;46904;49.438;8.752;2022-11-21T01:02:54;1.67;;;1.00;;
52047;SDS011;46904;49.438;8.752;2022-11-21T01:05:20;3.13;;;1.20;;
52047;SDS011;46904;49.438;8.752;2022-11-21T01:07:46;2.05;;;1.15;;
52047;SDS011;46904;49.438;8.752;2022-11-21T01:10:12;2.47;;;1.20;;
52047;SDS011;46904;49.438;8.752;2022-11-21T01:12:38;2.97;;;1.48;;
52047;SDS011;46904;49.438;8.752;2022-11-21T01:15:04;1.58;;;1.13;;
52047;SDS011;46904;49.438;8.752;2022-11-21T01:17:31;4.10;;;1.27;;
52047;SDS011;46904;49.438;8.752;2022-11-21T01:19:56;2.80;;;1.38;;
52047;SDS011;46904;49.438;8.752;2022-11-21T01:22:22;2.65;;;1.30;;
52047;SDS011;46904;49.438;8.752;2022-11-21T01:24:47;2.15;;;1.23;;
52047;SDS011;46904;49.438;8.752;2022-11-21T01:27:13;1.55;;;1.10;;
52047;SDS011;46904;49.438;8.752;2022-11-21T01:29:39;2.95;;;1.23;;
52047;SDS011;46904;49.438;8.752;2022-11-21T01:32:04;1.70;;;1.30;;
52047;SDS011;46904;49.438;8.752;2022-11-21T01:34:30;2.03;;;1.10;;
52047;SDS011;46904;49.438;8.752;2022-11-21T01:36:55;2.38;;;1.50;;
52047;SDS011;46904;49.438;8.752;2022-11-21T01:39:21;6.25;;;1.80;;
52047;SDS011;46904;49.438;8.752;2022-11-21T01:41:47;3.15;;;1.20;;
52047;SDS011;46904;49.438;8.752;2022-11-21T01:44:15;2.58;;;1.30;;
52047;SDS011;46904;49.438;8.752;2022-11-21T01:46:41;3.28;;;1.50;;
52047;SDS011;46904;49.438;8.752;2022-11-21T01:49:10;1.73;;;1.00;;
52047;SDS011;46904;49.438;8.752;2022-11-21T01:51:42;2.05;;;1.10;;
52047;SDS011;46904;49.438;8.752;2022-11-21T01:56:45;2.00;;;1.15;;
52047;SDS011;46904;49.438;8.752;2022-11-21T01:59:14;2.88;;;1.15;;
52047;SDS011;46904;49.438;8.752;2022-11-21T02:01:41;2.17;;;1.20;;
52047;SDS011;46904;49.438;8.752;2022-11-21T02:04:08;1.30;;;1.10;;
52047;SDS011;46904;49.438;8.752;2022-11-21T02:06:33;3.97;;;1.45;;
52047;SDS011;46904;49.438;8.752;2022-11-21T02:08:59;2.92;;;1.10;;
52047;SDS011;46904;49.438;8.752;2022-11-21T02:11:30;3.97;;;1.33;;
52047;SDS011;46904;49.438;8.752;2022-11-21T02:13:56;1.45;;;1.15;;
52047;SDS011;46904;49.438;8.752;2022-11-21T02:16:23;2.78;;;1.10;;
52047;SDS011;46904;49.438;8.752;2022-11-21T02:18:48;1.95;;;1.05;;
52047;SDS011;46904;49.438;8.752;2022-11-21T02:24:11;1.88;;;1.25;;
52047;SDS011;46904;49.438;8.752;2022-11-21T02:26:39;1.85;;;1.00;;
52047;SDS011;46904;49.438;8.752;2022-11-21T02:29:05;1.52;;;1.30;;
52047;SDS011;46904;49.438;8.752;2022-11-21T02:31:31;1.70;;;1.33;;
52047;SDS011;46904;49.438;8.752;2022-11-21T02:33:57;1.75;;;1.10;;
52047;SDS011;46904;49.438;8.752;2022-11-21T02:36:38;1.40;;;0.93;;
52047;SDS011;46904;49.438;8.752;2022-11-21T02:39:06;1.70;;;1.20;;
52047;SDS011;46904;49.438;8.752;2022-11-21T02:41:32;1.30;;;0.90;;
52047;SDS011;46904;49.438;8.752;2022-11-21T02:44:01;2.95;;;1.00;;
52047;SDS011;46904;49.438;8.752;2022-11-21T02:48:54;2.03;;;1.08;;
52047;SDS011;46904;49.438;8.752;2022-11-21T02:51:21;1.50;;;1.00;;
52047;SDS011;46904;49.438;8.752;2022-11-21T02:53:46;2.00;;;1.10;;
52047;SDS011;46904;49.438;8.752;2022-11-21T02:56:12;1.20;;;1.10;;
52047;SDS011;46904;49.438;8.752;2022-11-21T02:58:38;1.05;;;0.80;;
52047;SDS011;46904;49.438;8.752;2022-11-21T03:01:03;1.23;;;0.90;;
52047;SDS011;46904;49.438;8.752;2022-11-21T03:03:29;1.63;;;1.17;;
52047;SDS011;46904;49.438;8.752;2022-11-21T03:05:54;1.80;;;1.23;;
52047;SDS011;46904;49.438;8.752;2022-11-21T03:08:20;4.00;;;1.10;;
52047;SDS011;46904;49.438;8.752;2022-11-21T03:10:46;3.15;;;1.20;;
52047;SDS011;46904;49.438;8.752;2022-11-21T03:13:11;1.30;;;1.00;;
52047;SDS011;46904;49.438;8.752;2022-11-21T03:15:37;1.65;;;1.10;;
52047;SDS011;46904;49.438;8.752;2022-11-21T03:18:03;1.77;;;1.10;;
52047;SDS011;46904;49.438;8.752;2022-11-21T03:20:29;2.55;;;1.38;;
52047;SDS011;46904;49.438;8.752;2022-11-21T03:22:55;1.38;;;1.02;;
52047;SDS011;46904;49.438;8.752;2022-11-21T03:25:20;1.67;;;1.15;;
52047;SDS011;46904;49.438;8.752;2022-11-21T03:27:48;3.00;;;1.40;;
52047;SDS011;46904;49.438;8.752;2022-11-21T03:30:14;1.42;;;1.25;;
52047;SDS011;46904;49.438;8.752;2022-11-21T03:32:40;1.40;;;1.30;;
52047;SDS011;46904;49.438;8.752;2022-11-21T03:35:05;1.92;;;0.90;;
52047;SDS011;46904;49.438;8.752;2022-11-21T03:37:31;1.45;;;1.15;;
52047;SDS011;46904;49.438;8.752;2022-11-21T03:39:57;1.05;;;1.00;;
52047;SDS011;46904;49.438;8.752;2022-11-21T03:42:22;2.72;;;0.90;;
52047;SDS011;46904;49.438;8.752;2022-11-21T03:44:48;2.58;;;1.00;;
52047;SDS011;46904;49.438;8.752;2022-11-21T03:47:13;1.25;;;1.10;;
52047;SDS011;46904;49.438;8.752;2022-11-21T03:49:39;2.83;;;1.17;;
52047;SDS011;46904;49.438;8.752;2022-11-21T03:52:05;1.52;;;1.02;;
52047;SDS011;46904;49.438;8.752;2022-11-21T03:54:30;1.05;;;0.95;;
52047;SDS011;46904;49.438;8.752;2022-11-21T03:56:56;2.80;;;1.20;;
52047;SDS011;46904;49.438;8.752;2022-11-21T03:59:21;1.85;;;1.17;;
52047;SDS011;46904;49.438;8.752;2022-11-21T04:01:47;1.17;;;0.95;;
52047;SDS011;46904;49.438;8.752;2022-11-21T04:04:12;1.30;;;0.90;;
52047;SDS011;46904;49.438;8.752;2022-11-21T04:06:38;1.75;;;1.00;;
52047;SDS011;46904;49.438;8.752;2022-11-21T04:09:04;1.80;;;1.00;;
52047;SDS011;46904;49.438;8.752;2022-11-21T04:11:29;1.92;;;1.05;;
52047;SDS011;46904;49.438;8.752;2022-11-21T04:13:55;1.65;;;1.20;;
52047;SDS011;46904;49.438;8.752;2022-11-21T04:16:20;2.75;;;1.30;;
52047;SDS011;46904;49.438;8.752;2022-11-21T04:18:46;1.52;;;1.20;;
52047;SDS011;46904;49.438;8.752;2022-11-21T04:21:12;2.33;;;1.02;;
52047;SDS011;46904;49.438;8.752;2022-11-21T04:23:37;1.90;;;1.08;;
52047;SDS011;46904;49.438;8.752;2022-11-21T04:26:03;2.13;;;1.20;;
52047;SDS011;46904;49.438;8.752;2022-11-21T04:28:28;1.63;;;1.02;;
52047;SDS011;46904;49.438;8.752;2022-11-21T04:30:54;2.33;;;0.98;;
52047;SDS011;46904;49.438;8.752;2022-11-21T04:33:20;2.92;;;1.20;;
52047;SDS011;46904;49.438;8.752;2022-11-21T04:35:47;2.42;;;1.02;;
52047;SDS011;46904;49.438;8.752;2022-11-21T04:38:13;2.78;;;1.20;;
52047;SDS011;46904;49.438;8.752;2022-11-21T04:40:39;2.70;;;1.15;;
52047;SDS011;46904;49.438;8.752;2022-11-21T04:43:05;1.17;;;1.00;;
52047;SDS011;46904;49.438;8.752;2022-11-21T04:45:30;1.85;;;1.08;;
52047;SDS011;46904;49.438;8.752;2022-11-21T04:47:56;1.98;;;1.00;;
52047;SDS011;46904;49.438;8.752;2022-11-21T04:50:22;2.38;;;1.25;;
52047;SDS011;46904;49.438;8.752;2022-11-21T04:52:49;1.50;;;1.10;;
52047;SDS011;46904;49.438;8.752;2022-11-21T04:55:14;1.63;;;1.35;;
52047;SDS011;46904;49.438;8.752;2022-11-21T04:57:40;2.47;;;1.20;;
52047;SDS011;46904;49.438;8.752;2022-11-21T05:00:06;1.42;;;1.33;;
52047;SDS011;46904;49.438;8.752;2022-11-21T05:02:32;1.20;;;1.10;;
52047;SDS011;46904;49.438;8.752;2022-11-21T05:04:57;2.65;;;1.30;;
52047;SDS011;46904;49.438;8.752;2022-11-21T05:07:23;2.13;;;1.10;;
52047;SDS011;46904;49.438;8.752;2022-11-21T05:09:48;1.15;;;1.05;;
52047;SDS011;46904;49.438;8.752;2022-11-21T05:12:14;2.17;;;1.23;;
52047;SDS011;46904;49.438;8.752;2022-11-21T05:14:39;2.08;;;1.52;;
52047;SDS011;46904;49.438;8.752;2022-11-21T05:17:05;1.45;;;1.10;;
52047;SDS011;46904;49.438;8.752;2022-11-21T05:19:31;1.17;;;1.00;;
52047;SDS011;46904;49.438;8.752;2022-11-21T05:21:56;1.52;;;1.30;;
52047;SDS011;46904;49.438;8.752;2022-11-21T05:24:22;2.35;;;1.20;;
52047;SDS011;46904;49.438;8.752;2022-11-21T05:26:47;0.93;;;0.80;;
52047;SDS011;46904;49.438;8.752;2022-11-21T05:29:13;2.67;;;1.17;;
52047;SDS011;46904;49.438;8.752;2022-11-21T05:31:39;1.35;;;1.25;;
52047;SDS011;46904;49.438;8.752;2022-11-21T05:34:04;3.00;;;1.20;;
52047;SDS011;46904;49.438;8.752;2022-11-21T05:36:30;1.30;;;1.20;;
52047;SDS011;46904;49.438;8.752;2022-11-21T05:38:55;1.92;;;1.10;;
52047;SDS011;46904;49.438;8.752;2022-11-21T05:41:21;1.20;;;1.10;;
52047;SDS011;46904;49.438;8.752;2022-11-21T05:43:46;1.63;;;1.20;;
52047;SDS011;46904;49.438;8.752;2022-11-21T05:46:13;1.92;;;1.30;;
52047;SDS011;46904;49.438;8.752;2022-11-21T05:48:38;1.83;;;0.93;;
52047;SDS011;46904;49.438;8.752;2022-11-21T05:51:04;1.98;;;1.13;;
52047;SDS011;46904;49.438;8.752;2022-11-21T05:53:30;2.50;;;1.25;;
52047;SDS011;46904;49.438;8.752;2022-11-21T05:55:59;1.90;;;1.70;;
52047;SDS011;46904;49.438;8.752;2022-11-21T06:00:54;1.90;;;1.10;;
52047;SDS011;46904;49.438;8.752;2022-11-21T06:05:45;1.45;;;1.35;;
52047;SDS011;46904;49.438;8.752;2022-11-21T06:08:11;1.30;;;1.20;;
52047;SDS011;46904;49.438;8.752;2022-11-21T06:10:36;1.95;;;1.50;;
52047;SDS011;46904;49.438;8.752;2022-11-21T06:13:02;2.38;;;1.10;;
52047;SDS011;46904;49.438;8.752;2022-11-21T06:15:28;1.88;;;1.17;;
52047;SDS011;46904;49.438;8.752;2022-11-21T06:17:53;1.65;;;1.20;;
52047;SDS011;46904;49.438;8.752;2022-11-21T06:20:19;1.23;;;1.10;;
52047;SDS011;46904;49.438;8.752;2022-11-21T06:22:44;1.55;;;1.45;;
52047;SDS011;46904;49.438;8.752;2022-11-21T06:25:10;1.70;;;1.17;;
52047;SDS011;46904;49.438;8.752;2022-11-21T06:27:36;2.33;;;1.40;;
52047;SDS011;46904;49.438;8.752;2022-11-21T06:30:01;2.22;;;1.33;;
52047;SDS011;46904;49.438;8.752;2022-11-21T06:32:27;2.65;;;1.20;;
52047;SDS011;46904;49.438;8.752;2022-11-21T06:34:53;1.83;;;1.20;;
52047;SDS011;46904;49.438;8.752;2022-11-21T06:37:18;2.22;;;1.17;;
52047;SDS011;46904;49.438;8.752;2022-11-21T06:39:44;1.77;;;1.30;;
52047;SDS011;46904;49.438;8.752;2022-11-21T06:42:09;2.35;;;1.33;;
52047;SDS011;46904;49.438;8.752;2022-11-21T06:44:35;8.73;;;1.50;;
52047;SDS011;46904;49.438;8.752;2022-11-21T06:47:01;1.65;;;1.30;;
52047;SDS011;46904;49.438;8.752;2022-11-21T06:49:26;1.75;;;1.45;;
52047;SDS011;46904;49.438;8.752;2022-11-21T06:51:52;4.05;;;1.60;;
52047;SDS011;46904;49.438;8.752;2022-11-21T06:54:17;1.63;;;1.42;;
52047;SDS011;46904;49.438;8.752;2022-11-21T06:56:43;2.55;;;1.20;;
52047;SDS011;46904;49.438;8.752;2022-11-21T06:59:09;1.67;;;1.50;;
52047;SDS011;46904;49.438;8.752;2022-11-21T07:01:34;1.90;;;1.55;;
52047;SDS011;46904;49.438;8.752;2022-11-21T07:04:00;1.83;;;1.30;;
52047;SDS011;46904;49.438;8.752;2022-11-21T07:06:25;1.60;;;1.50;;
52047;SDS011;46904;49.438;8.752;2022-11-21T07:08:51;1.80;;;1.70;;
52047;SDS011;46904;49.438;8.752;2022-11-21T07:11:17;4.25;;;1.52;;
52047;SDS011;46904;49.438;8.752;2022-11-21T07:13:43;2.97;;;1.80;;
52047;SDS011;46904;49.438;8.752;2022-11-21T07:16:10;2.03;;;1.50;;
52047;SDS011;46904;49.438;8.752;2022-11-21T07:18:36;2.83;;;1.80;;
52047;SDS011;46904;49.438;8.752;2022-11-21T07:21:05;2.70;;;1.42;;
52047;SDS011;46904;49.438;8.752;2022-11-21T07:23:31;2.22;;;1.42;;
52047;SDS011;46904;49.438;8.752;2022-11-21T07:26:00;1.48;;;1.33;;
52047;SDS011;46904;49.438;8.752;2022-11-21T07:28:26;1.75;;;1.30;;
52047;SDS011;46904;49.438;8.752;2022-11-21T07:30:54;1.13;;;0.95;;
52047;SDS011;46904;49.438;8.752;2022-11-21T07:33:20;2.95;;;1.08;;
52047;SDS011;46904;49.438;8.752;2022-11-21T07:35:45;3.17;;;1.55;;
52047;SDS011;46904;49.438;8.752;2022-11-21T07:38:11;1.75;;;1.30;;
52047;SDS011;46904;49.438;8.752;2022-11-21T07:40:37;3.85;;;1.27;;
52047;SDS011;46904;49.438;8.752;2022-11-21T07:43:03;3.28;;;1.63;;
52047;SDS011;46904;49.438;8.752;2022-11-21T07:45:29;2.22;;;1.20;;
52047;SDS011;46904;49.438;8.752;2022-11-21T07:48:01;2.78;;;1.38;;
52047;SDS011;46904;49.438;8.752;2022-11-21T07:50:27;2.55;;;1.40;;
52047;SDS011;46904;49.438;8.752;2022-11-21T07:52:57;1.65;;;1.30;;
52047;SDS011;46904;49.438;8.752;2022-11-21T07:55:22;2.47;;;1.35;;
52047;SDS011;46904;49.438;8.752;2022-11-21T07:57:56;2.17;;;1.33;;
52047;SDS011;46904;49.438;8.752;2022-11-21T08:00:21;2.53;;;1.85;;
52047;SDS011;46904;49.438;8.752;2022-11-21T08:02:47;2.47;;;1.40;;
52047;SDS011;46904;49.438;8.752;2022-11-21T08:05:12;3.17;;;1.70;;
52047;SDS011;46904;49.438;8.752;2022-11-21T08:07:38;2.45;;;1.50;;
52047;SDS011;46904;49.438;8.752;2022-11-21T08:10:04;3.78;;;1.70;;
52047;SDS011;46904;49.438;8.752;2022-11-21T08:12:31;1.25;;;1.05;;
52047;SDS011;46904;49.438;8.752;2022-11-21T08:14:56;3.83;;;1.92;;
52047;SDS011;46904;49.438;8.752;2022-11-21T08:17:24;4.68;;;2.00;;
52047;SDS011;46904;49.438;8.752;2022-11-21T08:19:50;2.70;;;1.25;;
52047;SDS011;46904;49.438;8.752;2022-11-21T08:22:15;3.97;;;1.48;;
52047;SDS011;46904;49.438;8.752;2022-11-21T08:24:41;3.60;;;1.50;;
52047;SDS011;46904;49.438;8.752;2022-11-21T08:27:06;2.28;;;1.58;;
52047;SDS011;46904;49.438;8.752;2022-11-21T08:29:32;1.95;;;1.50;;
52047;SDS011;46904;49.438;8.752;2022-11-21T08:31:58;5.30;;;1.63;;
52047;SDS011;46904;49.438;8.752;2022-11-21T08:34:23;7.38;;;2.30;;
52047;SDS011;46904;49.438;8.752;2022-11-21T08:36:49;1.98;;;1.40;;
52047;SDS011;46904;49.438;8.752;2022-11-21T08:39:14;2.67;;;1.63;;
52047;SDS011;46904;49.438;8.752;2022-11-21T08:41:40;4.88;;;1.80;;
52047;SDS011;46904;49.438;8.752;2022-11-21T08:44:06;2.67;;;1.50;;
52047;SDS011;46904;49.438;8.752;2022-11-21T08:46:34;3.78;;;1.50;;
52047;SDS011;46904;49.438;8.752;2022-11-21T08:49:00;4.03;;;1.73;;
52047;SDS011;46904;49.438;8.752;2022-11-21T08:51:25;2.90;;;1.42;;
52047;SDS011;46904;49.438;8.752;2022-11-21T08:53:51;2.33;;;1.40;;
52047;SDS011;46904;49.438;8.752;2022-11-21T08:56:17;3.85;;;1.48;;
52047;SDS011;46904;49.438;8.752;2022-11-21T08:58:42;4.72;;;1.20;;
52047;SDS011;46904;49.438;8.752;2022-11-21T09:01:08;4.07;;;1.95;;
52047;SDS011;46904;49.438;8.752;2022-11-21T09:03:33;4.00;;;1.38;;
52047;SDS011;46904;49.438;8.752;2022-11-21T09:05:59;3.05;;;1.50;;
52047;SDS011;46904;49.438;8.752;2022-11-21T09:08:25;3.90;;;1.77;;
52047;SDS011;46904;49.438;8.752;2022-11-21T09:10:51;3.58;;;1.50;;
52047;SDS011;46904;49.438;8.752;2022-11-21T09:13:16;2.92;;;1.63;;
52047;SDS011;46904;49.438;8.752;2022-11-21T09:15:42;2.50;;;1.67;;
52047;SDS011;46904;49.438;8.752;2022-11-21T09:18:09;2.30;;;1.23;;
52047;SDS011;46904;49.438;8.752;2022-11-21T09:20:38;1.83;;;1.30;;
52047;SDS011;46904;49.438;8.752;2022-11-21T09:23:05;2.08;;;1.42;;
52047;SDS011;46904;49.438;8.752;2022-11-21T09:25:34;4.65;;;1.38;;
52047;SDS011;46904;49.438;8.752;2022-11-21T09:28:00;2.95;;;1.30;;
52047;SDS011;46904;49.438;8.752;2022-11-21T09:30:26;2.08;;;1.45;;
52047;SDS011;46904;49.438;8.752;2022-11-21T09:32:52;2.50;;;1.33;;
52047;SDS011;46904;49.438;8.752;2022-11-21T09:35:17;3.05;;;1.42;;
52047;SDS011;46904;49.438;8.752;2022-11-21T09:37:44;3.20;;;1.45;;
52047;SDS011;46904;49.438;8.752;2022-11-21T09:40:16;1.65;;;1.27;;
52047;SDS011;46904;49.438;8.752;2022-11-21T09:45:30;4.57;;;1.83;;
52047;SDS011;46904;49.438;8.752;2022-11-21T09:47:57;1.88;;;1.10;;
52047;SDS011;46904;49.438;8.752;2022-11-21T09:50:36;3.17;;;1.48;;
52047;SDS011;46904;49.438;8.752;2022-11-21T09:53:16;3.63;;;1.00;;
52047;SDS011;46904;49.438;8.752;2022-11-21T09:55:44;1.73;;;1.17;;
52047;SDS011;46904;49.438;8.752;2022-11-21T10:00:45;2.13;;;1.70;;
52047;SDS011;46904;49.438;8.752;2022-11-21T10:03:11;9.73;;;1.58;;
52047;SDS011;46904;49.438;8.752;2022-11-21T10:05:46;2.28;;;1.33;;
52047;SDS011;46904;49.438;8.752;2022-11-21T10:10:59;3.15;;;1.10;;
52047;SDS011;46904;49.438;8.752;2022-11-21T10:21:30;4.47;;;1.05;;
52047;SDS011;46904;49.438;8.752;2022-11-21T10:24:15;2.15;;;1.15;;
52047;SDS011;46904;49.438;8.752;2022-11-21T10:26:52;2.08;;;1.10;;
52047;SDS011;46904;49.438;8.752;2022-11-21T10:29:29;5.28;;;1.10;;
52047;SDS011;46904;49.438;8.752;2022-11-21T10:31:57;3.22;;;1.10;;
52047;SDS011;46904;49.438;8.752;2022-11-21T10:34:30;4.00;;;1.10;;
52047;SDS011;46904;49.438;8.752;2022-11-21T11:18:12;2.78;;;0.98;;
52047;SDS011;46904;49.438;8.752;2022-11-21T11:20:40;1.85;;;1.08;;
52047;SDS011;46904;49.438;8.752;2022-11-21T11:23:15;3.83;;;1.27;;
52047;SDS011;46904;49.438;8.752;2022-11-21T11:25:54;4.00;;;1.40;;
52047;SDS011;46904;49.438;8.752;2022-11-21T11:28:20;2.60;;;1.13;;
52047;SDS011;46904;49.438;8.752;2022-11-21T11:30:46;3.58;;;1.73;;
52047;SDS011;46904;49.438;8.752;2022-11-21T11:35:58;3.63;;;1.17;;
52047;SDS011;46904;49.438;8.752;2022-11-21T11:38:26;2.55;;;1.30;;
52047;SDS011;46904;49.438;8.752;2022-11-21T11:40:54;3.08;;;1.30;;
52047;SDS011;46904;49.438;8.752;2022-11-21T11:44:19;3.40;;;1.05;;
52047;SDS011;46904;49.438;8.752;2022-11-21T11:49:08;1.65;;;1.17;;
52047;SDS011;46904;49.438;8.752;2022-11-21T11:51:38;2.85;;;1.10;;
52047;SDS011;46904;49.438;8.752;2022-11-21T11:54:11;1.58;;;1.38;;
52047;SDS011;46904;49.438;8.752;2022-11-21T11:56:38;3.17;;;1.75;;
52047;SDS011;46904;49.438;8.752;2022-11-21T11:59:15;3.25;;;1.77;;
52047;SDS011;46904;49.438;8.752;2022-11-21T12:01:54;3.20;;;1.30;;
52047;SDS011;46904;49.438;8.752;2022-11-21T12:04:21;3.92;;;1.17;;
52047;SDS011;46904;49.438;8.752;2022-11-21T12:07:04;2.78;;;1.20;;
52047;SDS011;46904;49.438;8.752;2022-11-21T12:12:22;3.47;;;1.20;;
52047;SDS011;46904;49.438;8.752;2022-11-21T12:17:16;4.40;;;1.10;;
52047;SDS011;46904;49.438;8.752;2022-11-21T12:19:44;4.15;;;1.27;;
52047;SDS011;46904;49.438;8.752;2022-11-21T12:22:10;4.75;;;1.13;;
52047;SDS011;46904;49.438;8.752;2022-11-21T12:24:35;3.85;;;1.45;;
52047;SDS011;46904;49.438;8.752;2022-11-21T12:29:33;3.50;;;1.65;;
52047;SDS011;46904;49.438;8.752;2022-11-21T12:32:14;3.15;;;1.30;;
52047;SDS011;46904;49.438;8.752;2022-11-21T12:50:19;3.90;;;1.45;;
52047;SDS011;46904;49.438;8.752;2022-11-21T12:52:55;5.03;;;1.10;;
52047;SDS011;46904;49.438;8.752;2022-11-21T12:55:34;7.38;;;1.23;;
52047;SDS011;46904;49.438;8.752;2022-11-21T13:00:36;3.20;;;1.60;;
52047;SDS011;46904;49.438;8.752;2022-11-21T13:03:27;2.33;;;1.25;;
52047;SDS011;46904;49.438;8.752;2022-11-21T13:05:54;1.77;;;0.88;;
52047;SDS011;46904;49.438;8.752;2022-11-21T13:08:20;2.83;;;1.48;;
52047;SDS011;46904;49.438;8.752;2022-11-21T13:13:22;3.10;;;1.20;;
52047;SDS011;46904;49.438;8.752;2022-11-21T13:15:55;2.67;;;1.20;;
52047;SDS011;46904;49.438;8.752;2022-11-21T13:18:23;2.45;;;0.98;;
52047;SDS011;46904;49.438;8.752;2022-11-21T13:20:50;4.03;;;1.08;;
52047;SDS011;46904;49.438;8.752;2022-11-21T13:25:57;3.17;;;1.00;;
52047;SDS011;46904;49.438;8.752;2022-11-21T13:28:26;1.92;;;0.90;;
52047;SDS011;46904;49.438;8.752;2022-11-21T13:30:57;2.22;;;0.93;;
52047;SDS011;46904;49.438;8.752;2022-11-21T13:36:02;2.17;;;1.30;;
52047;SDS011;46904;49.438;8.752;2022-11-21T13:38:29;2.88;;;1.10;;
52047;SDS011;46904;49.438;8.752;2022-11-21T13:40:54;5.47;;;1.58;;
52047;SDS011;46904;49.438;8.752;2022-11-21T13:43:24;4.40;;;1.40;;
52047;SDS011;46904;49.438;8.752;2022-11-21T13:45:50;4.25;;;1.25;;
52047;SDS011;46904;49.438;8.752;2022-11-21T13:50:46;6.15;;;1.90;;
52047;SDS011;46904;49.438;8.752;2022-11-21T13:55:55;3.87;;;1.40;;
52047;SDS011;46904;49.438;8.752;2022-11-21T14:05:58;1.95;;;1.10;;
52047;SDS011;46904;49.438;8.752;2022-11-21T14:08:27;4.20;;;1.20;;
52047;SDS011;46904;49.438;8.752;2022-11-21T14:10:54;3.65;;;1.08;;
52047;SDS011;46904;49.438;8.752;2022-11-21T14:13:29;4.63;;;1.42;;
52047;SDS011;46904;49.438;8.752;2022-11-21T14:18:41;4.22;;;2.15;;
52047;SDS011;46904;49.438;8.752;2022-11-21T14:21:15;2.58;;;1.45;;
52047;SDS011;46904;49.438;8.752;2022-11-21T14:23:41;5.43;;;1.40;;
52047;SDS011;46904;49.438;8.752;2022-11-21T14:26:11;2.83;;;1.30;;
52047;SDS011;46904;49.438;8.752;2022-11-21T14:28:38;5.43;;;1.60;;
52047;SDS011;46904;49.438;8.752;2022-11-21T14:31:04;3.70;;;1.50;;
52047;SDS011;46904;49.438;8.752;2022-11-21T14:33:30;4.50;;;1.73;;
52047;SDS011;46904;49.438;8.752;2022-11-21T14:35:58;2.95;;;1.30;;
52047;SDS011;46904;49.438;8.752;2022-11-21T14:38:24;4.85;;;1.70;;
52047;SDS011;46904;49.438;8.752;2022-11-21T14:41:09;5.85;;;1.40;;
52047;SDS011;46904;49.438;8.752;2022-11-21T14:43:35;4.40;;;1.40;;
52047;SDS011;46904;49.438;8.752;2022-11-21T14:46:01;3.97;;;1.13;;
52047;SDS011;46904;49.438;8.752;2022-11-21T14:48:27;5.82;;;1.60;;
52047;SDS011;46904;49.438;8.752;2022-11-21T14:50:54;3.75;;;1.50;;
52047;SDS011;46904;49.438;8.752;2022-11-21T14:53:20;3.83;;;1.52;;
52047;SDS011;46904;49.438;8.752;2022-11-21T14:55:49;2.50;;;1.40;;
52047;SDS011;46904;49.438;8.752;2022-11-21T14:58:15;6.47;;;1.60;;
52047;SDS011;46904;49.438;8.752;2022-11-21T15:00:41;3.83;;;1.40;;
52047;SDS011;46904;49.438;8.752;2022-11-21T15:03:25;6.70;;;2.40;;
52047;SDS011;46904;49.438;8.752;2022-11-21T15:05:57;5.22;;;2.33;;
52047;SDS011;46904;49.438;8.752;2022-11-21T15:08:23;5.10;;;2.00;;
52047;SDS011;46904;49.438;8.752;2022-11-21T15:10:48;8.00;;;2.45;;
52047;SDS011;46904;49.438;8.752;2022-11-21T15:13:14;10.80;;;2.65;;
52047;SDS011;46904;49.438;8.752;2022-11-21T15:15:50;4.32;;;2.72;;
52047;SDS011;46904;49.438;8.752;2022-11-21T15:18:26;6.05;;;2.40;;
52047;SDS011;46904;49.438;8.752;2022-11-21T15:20:52;3.67;;;1.83;;
52047;SDS011;46904;49.438;8.752;2022-11-21T15:25:50;3.83;;;1.67;;
52047;SDS011;46904;49.438;8.752;2022-11-21T15:28:16;3.28;;;1.70;;
52047;SDS011;46904;49.438;8.752;2022-11-21T15:30:42;5.20;;;1.80;;
52047;SDS011;46904;49.438;8.752;2022-11-21T15:33:17;4.93;;;2.65;;
52047;SDS011;46904;49.438;8.752;2022-11-21T15:35:50;5.10;;;1.92;;
52047;SDS011;46904;49.438;8.752;2022-11-21T15:38:26;5.00;;;2.55;;
52047;SDS011;46904;49.438;8.752;2022-11-21T15:40:59;18.67;;;11.27;;
52047;SDS011;46904;49.438;8.752;2022-11-21T15:43:34;39.35;;;21.98;;
52047;SDS011;46904;49.438;8.752;2022-11-21T15:46:01;32.40;;;18.02;;
52047;SDS011;46904;49.438;8.752;2022-11-21T15:48:27;10.52;;;5.53;;
52047;SDS011;46904;49.438;8.752;2022-11-21T15:50:52;11.35;;;6.13;;
52047;SDS011;46904;49.438;8.752;2022-11-21T15:53:18;12.70;;;6.88;;
52047;SDS011;46904;49.438;8.752;2022-11-21T15:55:43;13.10;;;5.90;;
52047;SDS011;46904;49.438;8.752;2022-11-21T15:58:09;17.83;;;9.10;;
52047;SDS011;46904;49.438;8.752;2022-11-21T16:00:34;12.13;;;6.95;;
52047;SDS011;46904;49.438;8.752;2022-11-21T16:03:00;8.65;;;5.40;;
52047;SDS011;46904;49.438;8.752;2022-11-21T16:05:25;5.28;;;3.50;;
52047;SDS011;46904;49.438;8.752;2022-11-21T16:07:51;8.13;;;4.53;;
52047;SDS011;46904;49.438;8.752;2022-11-21T16:10:17;13.35;;;7.57;;
52047;SDS011;46904;49.438;8.752;2022-11-21T16:12:42;9.32;;;4.80;;
52047;SDS011;46904;49.438;8.752;2022-11-21T16:15:08;20.55;;;12.52;;
52047;SDS011;46904;49.438;8.752;2022-11-21T16:17:33;14.95;;;8.70;;
52047;SDS011;46904;49.438;8.752;2022-11-21T16:19:59;28.95;;;14.65;;
52047;SDS011;46904;49.438;8.752;2022-11-21T16:22:25;14.85;;;8.15;;
52047;SDS011;46904;49.438;8.752;2022-11-21T16:24:50;10.80;;;5.50;;
52047;SDS011;46904;49.438;8.752;2022-11-21T16:27:16;17.55;;;8.10;;
52047;SDS011;46904;49.438;8.752;2022-11-21T16:29:41;33.47;;;15.38;;
52047;SDS011;46904;49.438;8.752;2022-11-21T16:32:07;23.00;;;9.70;;
52047;SDS011;46904;49.438;8.752;2022-11-21T16:34:32;10.70;;;5.43;;
52047;SDS011;46904;49.438;8.752;2022-11-21T16:36:58;6.35;;;3.70;;
52047;SDS011;46904;49.438;8.752;2022-11-21T16:39:23;5.28;;;3.33;;
52047;SDS011;46904;49.438;8.752;2022-11-21T16:41:49;4.57;;;2.90;;
52047;SDS011;46904;49.438;8.752;2022-11-21T16:44:15;6.20;;;3.20;;
52047;SDS011;46904;49.438;8.752;2022-11-21T16:46:41;7.95;;;3.20;;
52047;SDS011;46904;49.438;8.752;2022-11-21T16:49:07;8.70;;;3.72;;
52047;SDS011;46904;49.438;8.752;2022-11-21T16:51:33;4.82;;;2.85;;
52047;SDS011;46904;49.438;8.752;2022-11-21T16:53:58;4.50;;;2.28;;